createdAt,value
2022-11-24T05:11:30.780Z,119.05
2022-11-24T05:14:34.097Z,128.75
2022-11-24T05:17:38.955Z,114.03
2022-11-24T05:20:41.823Z,112.85
2022-11-24T05:23:44.753Z,116.12
2022-11-24T05:26:47.386Z,105.10
2022-11-24T05:29:50.033Z,96.35
2022-11-24T05:32:52.890Z,97.12
2022-11-24T05:35:55.414Z,91.72
2022-11-24T05:38:58.364Z,94.65
2022-11-24T05:42:25.719Z,92.93
2022-11-24T05:45:28.656Z,93.87
2022-11-24T05:48:31.268Z,100.28
2022-11-24T05:51:34.572Z,92.85
2022-11-24T05:54:37.083Z,81.40
2022-11-24T05:57:39.843Z,83.68
2022-11-24T06:00:42.413Z,78.62
2022-11-24T06:03:45.124Z,76.50
2022-11-24T06:06:47.833Z,81.07
2022-11-24T06:09:50.694Z,83.28
2022-11-24T06:12:53.577Z,76.07
2022-11-24T06:16:01.695Z,76.07
2022-11-24T06:19:04.162Z,73.12
2022-11-24T06:22:06.818Z,68.93
2022-11-24T06:25:09.607Z,67.45
2022-11-24T06:28:12.441Z,67.15
2022-11-24T06:31:15.324Z,69.57
2022-11-24T06:34:18.340Z,75.55
2022-11-24T06:37:20.904Z,71.35
2022-11-24T06:40:24.267Z,66.53
2022-11-24T06:43:28.866Z,65.65
2022-11-24T06:46:31.769Z,65.07
2022-11-24T06:49:34.396Z,61.45
2022-11-24T06:52:37.145Z,63.70
2022-11-24T06:55:40.726Z,60.92
2022-11-24T06:58:46.159Z,68.87
2022-11-24T07:01:48.698Z,63.05
2022-11-24T07:04:51.493Z,62.92
2022-11-24T07:07:56.029Z,60.03
2022-11-24T07:11:11.286Z,62.42
2022-11-24T07:14:13.890Z,59.00
2022-11-24T07:17:17.010Z,65.15
2022-11-24T07:20:19.568Z,68.45
2022-11-24T07:26:53.047Z,67.65
2022-11-24T07:29:55.961Z,56.78
2022-11-24T07:33:02.852Z,72.05
2022-11-24T07:36:07.422Z,66.00
2022-11-24T07:39:09.935Z,60.85
2022-11-24T07:42:13.473Z,61.05
2022-11-24T07:45:16.120Z,62.92
2022-11-24T07:48:18.847Z,62.35
2022-11-24T07:51:21.315Z,61.83
2022-11-24T07:54:24.078Z,68.47
2022-11-24T07:57:26.578Z,65.97
2022-11-24T08:00:29.450Z,59.78
2022-11-24T08:03:32.277Z,55.10
2022-11-24T08:10:13.671Z,64.22
2022-11-24T08:13:16.663Z,61.78
2022-11-24T08:16:19.771Z,65.47
2022-11-24T08:19:23.279Z,63.30
2022-11-24T08:22:25.869Z,71.28
2022-11-24T08:25:32.446Z,63.05
2022-11-24T08:28:35.874Z,59.08
2022-11-24T08:31:39.557Z,65.07
2022-11-24T08:34:42.101Z,64.82
2022-11-24T08:37:44.896Z,73.12
2022-11-24T08:40:50.534Z,65.20
2022-11-24T08:43:58.857Z,61.37
2022-11-24T08:54:32.795Z,70.37
2022-11-24T08:57:36.040Z,64.72
2022-11-24T09:00:38.571Z,68.87
2022-11-24T09:03:48.599Z,60.78
2022-11-24T09:06:54.492Z,65.70
2022-11-24T09:09:57.268Z,67.32
2022-11-24T09:12:59.949Z,66.95
2022-11-24T09:16:11.337Z,71.25
2022-11-24T09:19:13.972Z,66.53
2022-11-24T09:22:19.221Z,65.53
2022-11-24T09:25:23.596Z,65.93
2022-11-24T09:28:26.433Z,62.17
2022-11-24T09:31:31.289Z,62.97
2022-11-24T09:34:34.477Z,62.75
2022-11-24T09:37:37.229Z,64.05
2022-11-24T09:40:40.409Z,61.47
2022-11-24T09:43:46.168Z,56.60
2022-11-24T09:46:59.872Z,59.47
2022-11-24T09:50:04.476Z,59.20
2022-11-24T09:53:23.084Z,53.45
2022-11-24T09:56:28.869Z,51.70
2022-11-24T09:59:32.032Z,54.58
2022-11-24T10:02:34.910Z,58.50
2022-11-24T10:05:37.656Z,54.95
2022-11-24T10:08:45.820Z,61.97
2022-11-24T10:12:05.395Z,60.05
2022-11-24T10:22:59.718Z,52.83
2022-11-24T10:26:13.273Z,58.20
2022-11-24T10:29:39.205Z,56.58
2022-11-24T10:32:49.458Z,55.92
2022-11-24T10:36:07.794Z,55.33
2022-11-24T10:39:34.270Z,58.97
2022-11-24T10:42:37.442Z,53.70
2022-11-24T10:45:40.999Z,55.80
2022-11-24T10:48:49.237Z,55.80
2022-11-24T10:51:54.775Z,53.85
2022-11-24T10:55:03.172Z,56.40
2022-11-24T10:58:16.997Z,55.08
2022-11-24T11:01:28.659Z,49.97
2022-11-24T11:04:34.916Z,54.78
2022-11-24T11:07:37.541Z,46.67
2022-11-24T11:10:42.122Z,47.30
2022-11-24T11:13:56.909Z,52.92
2022-11-24T11:17:03.713Z,44.83
2022-11-24T11:20:26.956Z,46.05
2022-11-24T11:27:21.106Z,40.45
2022-11-24T11:34:26.777Z,42.97
2022-11-24T11:37:33.496Z,43.10
2022-11-24T11:40:37.031Z,40.53
2022-11-24T11:43:41.650Z,45.45
2022-11-24T12:02:16.921Z,36.40
2022-11-24T12:05:50.799Z,34.72
2022-11-24T12:09:41.493Z,36.45
2022-11-24T12:16:45.599Z,32.05
2022-11-24T12:20:26.697Z,35.30
2022-11-24T12:24:07.094Z,32.92
2022-11-24T12:27:47.864Z,33.40
2022-11-24T12:31:04.202Z,32.35
2022-11-24T12:34:31.802Z,30.48
2022-11-24T12:38:07.776Z,42.47
2022-11-24T12:45:13.258Z,30.80
2022-11-24T12:48:25.349Z,30.20
2022-11-24T12:51:32.322Z,31.10
2022-11-24T12:54:42.890Z,29.23
2022-11-24T12:57:53.903Z,32.60
2022-11-24T13:01:10.330Z,29.08
2022-11-24T13:04:42.205Z,30.77
2022-11-24T13:07:48.109Z,34.92
2022-11-24T13:10:56.359Z,30.20
2022-11-24T13:14:01.387Z,30.75
2022-11-24T13:17:31.146Z,29.27
2022-11-24T13:20:40.475Z,28.98
2022-11-24T13:23:43.085Z,29.10
2022-11-24T13:26:49.069Z,28.52
2022-11-24T13:33:31.997Z,30.33
2022-11-24T13:36:51.556Z,28.77
2022-11-24T13:39:56.228Z,30.08
2022-11-24T13:43:01.483Z,30.77
2022-11-24T13:46:04.241Z,30.20
2022-11-24T13:49:14.256Z,27.65
2022-11-24T13:53:00.267Z,29.52
2022-11-24T13:56:03.038Z,28.17
2022-11-24T13:59:29.929Z,31.02
2022-11-24T14:02:34.740Z,30.33
2022-11-24T14:05:40.091Z,27.62
2022-11-24T14:08:46.356Z,28.45
2022-11-24T14:12:05.309Z,28.80
2022-11-24T14:15:27.099Z,24.37
2022-11-24T14:18:31.511Z,31.15
2022-11-24T14:21:38.119Z,27.98
2022-11-24T14:24:45.252Z,29.67
2022-11-24T14:27:47.939Z,27.90
2022-11-24T14:30:51.511Z,30.40
2022-11-24T14:34:11.393Z,27.70
2022-11-24T14:37:14.067Z,29.95
2022-11-24T14:41:03.767Z,31.45
2022-11-24T14:44:19.615Z,28.20
2022-11-24T14:47:37.954Z,29.75
2022-11-24T14:50:41.827Z,30.40
2022-11-24T14:53:49.298Z,29.98
2022-11-24T14:57:06.344Z,31.62
2022-11-24T15:00:12.129Z,29.45
2022-11-24T15:03:18.746Z,32.72
2022-11-24T15:06:21.357Z,32.40
2022-11-24T15:09:49.531Z,33.75
2022-11-24T15:12:59.175Z,32.42
2022-11-24T15:16:06.626Z,32.72
2022-11-24T15:19:16.724Z,33.45
2022-11-24T15:22:37.886Z,38.08
2022-11-24T15:25:40.432Z,31.37
2022-11-24T15:28:43.171Z,38.53
2022-11-24T15:31:52.179Z,33.10
2022-11-24T15:34:55.208Z,32.58
2022-11-24T15:37:57.632Z,31.90
2022-11-24T15:41:01.817Z,34.92
2022-11-24T15:44:04.526Z,32.15
2022-11-24T15:47:08.815Z,30.37
2022-11-24T15:50:12.024Z,29.65
2022-11-24T15:53:40.748Z,35.97
2022-11-24T15:56:44.510Z,33.35
2022-11-24T15:59:47.591Z,32.65
2022-11-24T16:02:50.780Z,30.40
2022-11-24T16:05:55.394Z,32.33
2022-11-24T16:09:00.197Z,33.20
2022-11-24T16:12:06.198Z,34.38
2022-11-24T16:15:09.290Z,33.97
2022-11-24T16:18:13.932Z,34.47
2022-11-24T16:21:16.667Z,34.85
2022-11-24T16:24:19.474Z,33.35
2022-11-24T16:27:22.167Z,35.92
2022-11-24T16:30:25.429Z,41.47
2022-11-24T16:33:31.123Z,34.15
